Time;durP1;ratioP1;P1;durP2;ratioP2;P2;SDS_P1;SDS_P2;PMS_P1;PMS_P2;Temp;Humidity;BMP_temperature;BMP_pressure;BME280_temperature;BME280_humidity;BME280_pressure;Samples;Min_cycle;Max_cycle;Signal;HPM_P1;HPM_P2
2022/08/16 00:02:32;;;;;;;3.55;2.08;;;;;;;;;;5057980;28;20051;-85
2022/08/16 00:05:18;;;;;;;2.30;1.52;;;;;;;;;;5044677;28;20044;-86
2022/08/16 00:08:05;;;;;;;2.42;1.77;;;;;;;;;;5043936;28;20039;-86
2022/08/16 00:10:51;;;;;;;2.35;2.10;;;;;;;;;;5044949;28;20078;-86
2022/08/16 00:13:37;;;;;;;2.60;1.90;;;;;;;;;;5043823;28;20044;-86
2022/08/16 00:16:26;;;;;;;2.72;1.60;;;;;;;;;;5058022;28;20033;-85
2022/08/16 00:19:14;;;;;;;2.80;1.73;;;;;;;;;;5044030;28;20509;-86
2022/08/16 00:22:01;;;;;;;2.60;1.80;;;;;;;;;;5043386;28;20039;-85
2022/08/16 00:24:47;;;;;;;2.25;1.67;;;;;;;;;;5057445;28;20062;-86
2022/08/16 00:27:33;;;;;;;2.88;1.83;;;;;;;;;;5057641;28;20029;-85
2022/08/16 00:30:20;;;;;;;2.75;1.85;;;;;;;;;;5043722;28;20040;-85
2022/08/16 00:33:06;;;;;;;2.55;1.70;;;;;;;;;;5057371;28;20119;-85
2022/08/16 00:35:52;;;;;;;2.88;1.75;;;;;;;;;;5057111;28;20104;-85
2022/08/16 00:38:37;;;;;;;2.47;1.88;;;;;;;;;;5044254;28;20032;-84
2022/08/16 00:41:26;;;;;;;3.80;1.73;;;;;;;;;;5056983;28;20051;-85
2022/08/16 00:44:13;;;;;;;3.28;1.90;;;;;;;;;;5057981;28;20040;-85
2022/08/16 00:47:07;;;;;;;2.95;1.80;;;;;;;;;;5057547;28;20498;-85
2022/08/16 00:49:54;;;;;;;2.95;1.63;;;;;;;;;;5057957;28;20036;-85
2022/08/16 00:52:40;;;;;;;3.75;1.80;;;;;;;;;;5043885;28;20502;-86
2022/08/16 00:55:27;;;;;;;2.50;1.70;;;;;;;;;;5057015;28;20029;-86
2022/08/16 00:58:20;;;;;;;2.47;1.70;;;;;;;;;;5057202;28;20489;-86
2022/08/16 01:01:06;;;;;;;2.83;1.95;;;;;;;;;;5043727;28;20048;-86
2022/08/16 01:03:54;;;;;;;3.45;1.92;;;;;;;;;;5043538;28;20048;-86
2022/08/16 01:06:40;;;;;;;2.45;1.45;;;;;;;;;;5057087;28;20040;-85
2022/08/16 01:09:27;;;;;;;2.13;1.33;;;;;;;;;;5057716;28;20037;-86
2022/08/16 01:12:12;;;;;;;2.88;1.63;;;;;;;;;;5043222;28;20090;-86
2022/08/16 01:15:01;;;;;;;2.65;1.83;;;;;;;;;;5043813;28;20410;-86
2022/08/16 01:17:47;;;;;;;6.35;1.83;;;;;;;;;;5057050;28;20559;-86
2022/08/16 01:20:37;;;;;;;3.05;1.80;;;;;;;;;;5043473;28;20083;-86
2022/08/16 01:23:30;;;;;;;3.03;1.73;;;;;;;;;;5043883;28;20066;-86
2022/08/16 01:26:18;;;;;;;2.58;2.15;;;;;;;;;;5043757;28;20040;-86
2022/08/16 01:29:10;;;;;;;3.75;1.63;;;;;;;;;;5043890;28;20068;-86
2022/08/16 01:31:56;;;;;;;2.72;1.70;;;;;;;;;;5043448;28;20040;-86
2022/08/16 01:34:44;;;;;;;2.55;1.60;;;;;;;;;;5056788;28;20052;-86
2022/08/16 01:37:36;;;;;;;3.63;1.85;;;;;;;;;;5043652;28;20040;-85
2022/08/16 01:40:28;;;;;;;2.75;1.73;;;;;;;;;;5043777;28;20040;-86
2022/08/16 01:43:15;;;;;;;3.13;1.88;;;;;;;;;;5043258;28;20064;-85
2022/08/16 01:46:05;;;;;;;3.53;1.55;;;;;;;;;;5043654;28;20035;-85
2022/08/16 01:48:56;;;;;;;3.08;1.60;;;;;;;;;;5043080;28;20056;-86
2022/08/16 01:51:43;;;;;;;2.20;1.77;;;;;;;;;;5043893;28;20053;-86
2022/08/16 01:54:29;;;;;;;2.40;1.70;;;;;;;;;;5060073;28;20430;-86
2022/08/16 01:57:14;;;;;;;2.17;1.33;;;;;;;;;;5045271;28;20092;-86
2022/08/16 02:00:05;;;;;;;2.05;1.52;;;;;;;;;;5046653;28;20032;-86
2022/08/16 02:02:52;;;;;;;2.22;1.60;;;;;;;;;;5059341;28;20044;-86
2022/08/16 02:05:39;;;;;;;2.83;1.70;;;;;;;;;;5046770;28;20048;-86
2022/08/16 02:08:26;;;;;;;2.03;1.35;;;;;;;;;;5060533;28;20480;-85
2022/08/16 02:11:12;;;;;;;3.13;2.03;;;;;;;;;;5046279;28;20048;-86
2022/08/16 02:13:59;;;;;;;2.10;1.60;;;;;;;;;;5047047;28;20053;-85
2022/08/16 02:16:47;;;;;;;2.38;1.50;;;;;;;;;;5046575;28;20033;-86
2022/08/16 02:19:34;;;;;;;1.92;1.60;;;;;;;;;;5046013;28;20048;-85
2022/08/16 02:22:22;;;;;;;1.90;1.60;;;;;;;;;;5045094;28;20052;-85
2022/08/16 02:25:11;;;;;;;1.80;1.38;;;;;;;;;;5060207;28;20534;-86
2022/08/16 02:27:58;;;;;;;2.80;1.60;;;;;;;;;;5046444;28;20041;-84
2022/08/16 02:30:44;;;;;;;2.05;1.35;;;;;;;;;;5045601;28;20044;-86
2022/08/16 02:33:30;;;;;;;2.90;1.25;;;;;;;;;;5059464;28;20032;-85
2022/08/16 02:36:16;;;;;;;2.45;1.70;;;;;;;;;;5059599;28;20040;-86
2022/08/16 02:39:04;;;;;;;2.17;1.38;;;;;;;;;;5046497;28;20032;-86
2022/08/16 02:41:52;;;;;;;2.58;1.58;;;;;;;;;;5046642;28;20036;-85
2022/08/16 02:44:40;;;;;;;3.20;1.60;;;;;;;;;;5046406;28;20395;-86
2022/08/16 02:47:26;;;;;;;2.38;1.38;;;;;;;;;;5046268;28;20560;-85
2022/08/16 02:50:12;;;;;;;3.08;1.80;;;;;;;;;;5059635;28;20048;-86
2022/08/16 02:52:59;;;;;;;1.75;1.40;;;;;;;;;;5059433;28;20041;-86
2022/08/16 02:55:48;;;;;;;2.83;1.67;;;;;;;;;;5059345;28;20510;-86
2022/08/16 02:58:34;;;;;;;4.97;1.45;;;;;;;;;;5045888;28;20036;-86
2022/08/16 03:01:24;;;;;;;2.75;1.63;;;;;;;;;;5045444;28;20067;-86
2022/08/16 03:04:09;;;;;;;3.42;1.63;;;;;;;;;;5046409;28;20124;-86
2022/08/16 03:06:56;;;;;;;2.40;1.45;;;;;;;;;;5059165;28;20040;-86
2022/08/16 03:09:43;;;;;;;2.00;1.50;;;;;;;;;;5059222;28;20114;-86
2022/08/16 03:12:31;;;;;;;1.65;1.33;;;;;;;;;;5046094;28;20045;-85
2022/08/16 03:15:17;;;;;;;1.73;1.27;;;;;;;;;;5045278;28;20101;-85
2022/08/16 03:18:02;;;;;;;2.53;1.60;;;;;;;;;;5045161;28;20060;-86
2022/08/16 03:20:49;;;;;;;2.30;1.65;;;;;;;;;;5045135;28;20040;-86
2022/08/16 03:23:35;;;;;;;2.22;1.33;;;;;;;;;;5045583;28;20036;-86
2022/08/16 03:26:21;;;;;;;3.08;1.75;;;;;;;;;;5058659;28;20094;-86
2022/08/16 03:29:06;;;;;;;4.13;2.17;;;;;;;;;;5044050;28;20040;-86
2022/08/16 03:31:53;;;;;;;2.50;1.80;;;;;;;;;;5045449;28;20048;-86
2022/08/16 03:34:39;;;;;;;2.15;1.60;;;;;;;;;;5058885;28;20040;-86
2022/08/16 03:37:27;;;;;;;2.75;1.80;;;;;;;;;;5058707;28;20037;-86
2022/08/16 03:40:13;;;;;;;2.33;1.60;;;;;;;;;;5045452;28;20040;-86
2022/08/16 03:43:04;;;;;;;2.47;1.50;;;;;;;;;;5044779;28;20037;-86
2022/08/16 03:45:50;;;;;;;2.00;1.60;;;;;;;;;;5059062;28;20072;-85
2022/08/16 03:48:38;;;;;;;2.55;1.80;;;;;;;;;;5044343;28;20526;-86
2022/08/16 03:51:24;;;;;;;3.20;1.55;;;;;;;;;;5044416;28;20111;-86
2022/08/16 03:54:12;;;;;;;2.95;1.73;;;;;;;;;;5043412;28;20415;-86
2022/08/16 03:56:59;;;;;;;2.50;1.23;;;;;;;;;;5045171;28;20048;-86
2022/08/16 03:59:45;;;;;;;3.08;1.67;;;;;;;;;;5044733;28;20040;-86
2022/08/16 04:02:34;;;;;;;2.30;1.67;;;;;;;;;;5044863;28;20048;-86
2022/08/16 04:05:20;;;;;;;3.53;1.58;;;;;;;;;;5058223;28;20028;-86
2022/08/16 04:08:06;;;;;;;2.95;1.85;;;;;;;;;;5044320;28;20043;-86
2022/08/16 04:10:53;;;;;;;1.98;1.42;;;;;;;;;;5058129;28;20131;-85
2022/08/16 04:13:38;;;;;;;4.20;2.17;;;;;;;;;;5044714;28;20082;-86
2022/08/16 04:16:24;;;;;;;2.47;1.75;;;;;;;;;;5044315;28;20090;-87
2022/08/16 04:19:10;;;;;;;2.67;2.00;;;;;;;;;;5058219;28;20569;-85
2022/08/16 04:21:56;;;;;;;2.17;1.40;;;;;;;;;;5043380;28;20036;-85
2022/08/16 04:24:42;;;;;;;2.33;1.42;;;;;;;;;;5044347;28;20122;-85
2022/08/16 04:27:28;;;;;;;2.47;1.40;;;;;;;;;;5057393;28;20040;-85
2022/08/16 04:30:16;;;;;;;2.35;1.40;;;;;;;;;;5057691;28;20048;-86
2022/08/16 04:33:02;;;;;;;2.00;1.60;;;;;;;;;;5057660;28;20048;-85
2022/08/16 04:35:48;;;;;;;1.83;1.58;;;;;;;;;;5044339;28;20055;-85
2022/08/16 04:38:37;;;;;;;2.30;1.42;;;;;;;;;;5044116;28;20037;-85
2022/08/16 04:41:24;;;;;;;3.47;1.40;;;;;;;;;;5055994;28;20407;-85
2022/08/16 04:44:12;;;;;;;2.47;1.52;;;;;;;;;;5044531;28;20566;-86
2022/08/16 04:46:58;;;;;;;1.63;1.35;;;;;;;;;;5044485;28;20033;-85
2022/08/16 04:49:45;;;;;;;1.90;1.52;;;;;;;;;;5043661;28;20032;-86
2022/08/16 04:52:31;;;;;;;1.73;1.38;;;;;;;;;;5057484;28;20028;-87
2022/08/16 04:55:22;;;;;;;1.90;1.50;;;;;;;;;;5057153;28;20067;-86
2022/08/16 04:58:09;;;;;;;2.08;1.55;;;;;;;;;;5043871;28;20388;-87
2022/08/16 05:00:55;;;;;;;2.65;1.65;;;;;;;;;;5057423;28;20056;-87
2022/08/16 05:03:43;;;;;;;2.38;1.70;;;;;;;;;;5043288;28;20047;-86
2022/08/16 05:06:29;;;;;;;2.33;1.60;;;;;;;;;;5043335;28;20036;-87
2022/08/16 05:09:15;;;;;;;3.13;1.70;;;;;;;;;;5043880;28;20067;-86
2022/08/16 05:12:04;;;;;;;2.65;1.60;;;;;;;;;;5043588;28;20094;-88
2022/08/16 05:14:51;;;;;;;3.47;1.63;;;;;;;;;;5043848;28;20525;-87
2022/08/16 05:17:37;;;;;;;4.20;1.80;;;;;;;;;;5044154;28;20094;-87
2022/08/16 05:20:23;;;;;;;2.10;1.60;;;;;;;;;;5008535;28;20072;-88
2022/08/16 05:23:09;;;;;;;2.17;1.50;;;;;;;;;;5019753;28;20094;-89
2022/08/16 05:25:55;;;;;;;2.10;1.40;;;;;;;;;;5014500;28;20034;-88
2022/08/16 05:28:41;;;;;;;2.60;1.77;;;;;;;;;;5014183;28;20407;-88
2022/08/16 05:31:27;;;;;;;3.60;1.98;;;;;;;;;;5015294;28;20033;-91
2022/08/16 05:34:15;;;;;;;3.13;1.90;;;;;;;;;;5025789;28;20037;-85
2022/08/16 05:37:01;;;;;;;2.83;1.50;;;;;;;;;;5013524;28;20396;-85
2022/08/16 05:39:47;;;;;;;3.83;1.88;;;;;;;;;;5008841;28;20033;-84
2022/08/16 05:42:33;;;;;;;16.42;2.35;;;;;;;;;;5007891;28;20132;-86
2022/08/16 05:45:19;;;;;;;4.15;1.70;;;;;;;;;;5007418;28;20037;-87
2022/08/16 05:48:05;;;;;;;4.43;1.85;;;;;;;;;;5008581;28;20041;-87
2022/08/16 05:50:51;;;;;;;4.28;2.70;;;;;;;;;;5008043;28;20049;-85
2022/08/16 05:53:38;;;;;;;4.43;2.95;;;;;;;;;;5022016;28;20069;-86
2022/08/16 05:56:29;;;;;;;3.00;2.30;;;;;;;;;;5007994;28;20037;-86
2022/08/16 05:59:16;;;;;;;5.43;2.92;;;;;;;;;;5007748;28;20041;-87
2022/08/16 06:02:03;;;;;;;4.10;3.10;;;;;;;;;;5007522;28;20413;-87
2022/08/16 06:04:50;;;;;;;6.65;3.63;;;;;;;;;;5007730;28;20439;-87
2022/08/16 06:07:37;;;;;;;5.00;2.20;;;;;;;;;;5007582;28;20037;-86
2022/08/16 06:10:25;;;;;;;4.20;2.45;;;;;;;;;;5007361;28;20088;-87
2022/08/16 06:13:10;;;;;;;4.97;2.50;;;;;;;;;;5015149;28;20033;-86
2022/08/16 06:15:57;;;;;;;4.55;2.40;;;;;;;;;;5008108;28;20037;-86
2022/08/16 06:18:45;;;;;;;3.58;2.28;;;;;;;;;;5039188;28;20430;-86
2022/08/16 06:21:31;;;;;;;5.20;3.50;;;;;;;;;;5041046;28;20044;-84
2022/08/16 06:24:18;;;;;;;6.53;5.05;;;;;;;;;;5026223;28;20044;-85
2022/08/16 06:27:04;;;;;;;17.63;13.35;;;;;;;;;;5039666;28;20033;-84
2022/08/16 06:29:53;;;;;;;24.02;15.27;;;;;;;;;;5040024;28;20533;-87
2022/08/16 06:32:39;;;;;;;28.33;20.63;;;;;;;;;;5026191;28;20119;-85
2022/08/16 06:35:25;;;;;;;24.85;18.40;;;;;;;;;;5026124;28;20040;-87
2022/08/16 06:38:10;;;;;;;23.77;16.83;;;;;;;;;;5026410;28;20037;-87
2022/08/16 06:40:57;;;;;;;18.98;13.15;;;;;;;;;;5039619;28;20037;-86
2022/08/16 06:43:46;;;;;;;18.33;13.73;;;;;;;;;;5026046;28;20625;-90
2022/08/16 06:46:36;;;;;;;19.83;12.73;;;;;;;;;;5041052;28;20124;-89
2022/08/16 06:49:22;;;;;;;16.48;11.48;;;;;;;;;;5040830;28;20072;-88
2022/08/16 06:52:09;;;;;;;15.93;10.38;;;;;;;;;;5026179;28;20041;-90
2022/08/16 06:54:54;;;;;;;18.50;9.40;;;;;;;;;;5026886;28;20025;-90
2022/08/16 06:57:42;;;;;;;13.77;7.95;;;;;;;;;;5041485;28;20032;-89
2022/08/16 07:00:31;;;;;;;11.27;7.43;;;;;;;;;;5026606;28;20044;-89
2022/08/16 07:03:19;;;;;;;11.07;7.20;;;;;;;;;;5039349;28;20578;-90
2022/08/16 07:06:06;;;;;;;10.30;5.53;;;;;;;;;;5040316;28;20039;-89
2022/08/16 07:08:55;;;;;;;8.20;5.53;;;;;;;;;;5026337;28;20041;-88
2022/08/16 07:11:41;;;;;;;8.23;4.80;;;;;;;;;;5025282;28;20048;-87
2022/08/16 07:14:28;;;;;;;7.68;4.28;;;;;;;;;;5025670;28;20041;-88
2022/08/16 07:17:17;;;;;;;5.82;4.20;;;;;;;;;;5025846;28;20040;-88
2022/08/16 07:20:05;;;;;;;6.88;4.32;;;;;;;;;;5027010;28;20048;-89
2022/08/16 07:22:55;;;;;;;6.72;4.20;;;;;;;;;;5025751;28;20047;-88
2022/08/16 07:25:44;;;;;;;5.43;3.40;;;;;;;;;;5026182;28;20037;-87
2022/08/16 07:28:30;;;;;;;4.45;3.35;;;;;;;;;;5039092;28;20123;-86
2022/08/16 07:31:19;;;;;;;4.90;3.20;;;;;;;;;;5038667;28;20594;-87
2022/08/16 07:34:05;;;;;;;4.63;2.85;;;;;;;;;;5025131;28;20037;-89
2022/08/16 07:36:51;;;;;;;5.63;2.92;;;;;;;;;;5039025;28;20035;-87
2022/08/16 07:39:39;;;;;;;4.30;2.60;;;;;;;;;;5038978;28;20420;-86
2022/08/16 07:42:25;;;;;;;3.88;2.90;;;;;;;;;;5038482;28;20064;-88
2022/08/16 07:45:12;;;;;;;4.50;2.72;;;;;;;;;;5025883;28;20048;-89
2022/08/16 07:47:58;;;;;;;5.13;2.58;;;;;;;;;;5025535;28;20041;-88
2022/08/16 07:50:44;;;;;;;4.68;2.30;;;;;;;;;;5038315;28;20044;-88
2022/08/16 07:53:32;;;;;;;6.25;2.38;;;;;;;;;;5024182;28;20043;-88
2022/08/16 07:56:18;;;;;;;4.68;2.60;;;;;;;;;;5039326;28;20083;-88
2022/08/16 07:59:05;;;;;;;4.80;2.58;;;;;;;;;;5026101;28;20407;-90
2022/08/16 08:01:53;;;;;;;4.43;2.90;;;;;;;;;;5025537;28;20037;-92
2022/08/16 08:04:39;;;;;;;6.70;3.40;;;;;;;;;;5038746;28;20037;-90
2022/08/16 08:07:25;;;;;;;4.10;2.60;;;;;;;;;;5038633;28;20041;-89
2022/08/16 08:10:11;;;;;;;3.78;2.42;;;;;;;;;;5038777;28;20040;-90
2022/08/16 08:12:56;;;;;;;3.63;2.63;;;;;;;;;;5025262;28;20065;-91
2022/08/16 08:15:58;;;;;;;4.70;2.67;;;;;;;;;;5025147;28;20091;-90
2022/08/16 08:18:43;;;;;;;4.50;3.20;;;;;;;;;;5025148;28;20052;-90
2022/08/16 08:21:31;;;;;;;6.70;3.33;;;;;;;;;;5038244;28;20118;-89
2022/08/16 08:24:17;;;;;;;5.47;3.47;;;;;;;;;;5038434;28;20041;-91
2022/08/16 08:27:04;;;;;;;5.05;3.38;;;;;;;;;;5024960;28;20041;-91
2022/08/16 08:29:49;;;;;;;5.68;3.17;;;;;;;;;;5024455;28;20041;-86
2022/08/16 08:32:36;;;;;;;5.03;3.17;;;;;;;;;;5024365;28;20033;-85
2022/08/16 08:35:21;;;;;;;4.28;3.33;;;;;;;;;;5023534;28;20514;-84
2022/08/16 08:38:09;;;;;;;5.80;2.88;;;;;;;;;;5023422;28;20090;-84
2022/08/16 08:40:54;;;;;;;4.05;3.33;;;;;;;;;;5024105;28;20045;-83
2022/08/16 08:43:41;;;;;;;6.22;3.08;;;;;;;;;;5038432;28;20065;-85
2022/08/16 08:46:27;;;;;;;4.63;2.92;;;;;;;;;;5038560;28;20564;-85
2022/08/16 08:49:13;;;;;;;5.32;3.00;;;;;;;;;;5036762;28;20067;-84
2022/08/16 08:51:58;;;;;;;5.25;2.92;;;;;;;;;;5036457;28;20044;-85
2022/08/16 08:54:44;;;;;;;6.72;3.33;;;;;;;;;;5023490;28;20033;-85
2022/08/16 08:57:30;;;;;;;5.13;3.03;;;;;;;;;;5023591;28;20080;-85
2022/08/16 09:00:17;;;;;;;4.95;2.70;;;;;;;;;;5037381;28;20044;-84
2022/08/16 09:03:03;;;;;;;6.18;2.92;;;;;;;;;;5023869;28;20094;-85
2022/08/16 09:05:52;;;;;;;3.75;2.80;;;;;;;;;;5023328;28;20446;-85
2022/08/16 09:08:38;;;;;;;4.40;2.75;;;;;;;;;;5037409;28;20044;-84
2022/08/16 09:11:24;;;;;;;3.75;2.50;;;;;;;;;;5050871;28;20041;-84
2022/08/16 09:14:10;;;;;;;2.97;2.50;;;;;;;;;;5036674;28;20045;-84
2022/08/16 09:16:56;;;;;;;3.83;2.40;;;;;;;;;;5021997;28;20041;-84
2022/08/16 09:19:42;;;;;;;4.57;2.20;;;;;;;;;;5036516;28;20187;-84
2022/08/16 09:22:27;;;;;;;3.00;2.65;;;;;;;;;;5023234;28;20029;-85
2022/08/16 09:25:13;;;;;;;3.50;2.30;;;;;;;;;;5050291;28;20049;-84
2022/08/16 09:27:59;;;;;;;4.25;2.70;;;;;;;;;;5036583;28;20060;-85
2022/08/16 09:30:45;;;;;;;4.18;2.30;;;;;;;;;;5022736;28;20044;-85
2022/08/16 09:33:31;;;;;;;3.00;2.30;;;;;;;;;;5036789;28;20033;-85
2022/08/16 09:36:16;;;;;;;5.50;2.47;;;;;;;;;;5035652;28;20029;-85
2022/08/16 09:39:03;;;;;;;3.42;2.25;;;;;;;;;;5021660;28;20045;-85
2022/08/16 09:41:52;;;;;;;3.20;2.72;;;;;;;;;;5023197;28;20045;-85
2022/08/16 09:44:38;;;;;;;3.78;2.42;;;;;;;;;;5037022;28;20041;-85
2022/08/16 09:47:24;;;;;;;3.85;2.20;;;;;;;;;;5021321;28;20041;-85
2022/08/16 09:50:10;;;;;;;4.68;2.55;;;;;;;;;;5023145;28;20041;-84
2022/08/16 09:52:56;;;;;;;5.50;2.78;;;;;;;;;;5023178;28;20041;-85
2022/08/16 09:55:45;;;;;;;3.63;2.40;;;;;;;;;;5037323;28;20048;-85
2022/08/16 09:58:30;;;;;;;2.60;1.95;;;;;;;;;;5024222;28;20123;-84
2022/08/16 10:01:17;;;;;;;4.07;2.45;;;;;;;;;;5022621;28;20033;-85
2022/08/16 10:04:04;;;;;;;2.85;2.33;;;;;;;;;;5021752;28;20056;-85
2022/08/16 10:06:50;;;;;;;3.00;2.60;;;;;;;;;;5022597;28;20029;-85
2022/08/16 10:09:36;;;;;;;3.40;2.45;;;;;;;;;;5050704;28;20112;-85
2022/08/16 10:15:30;;;;;;;4.35;2.63;;;;;;;;;;5043528;28;20041;-84
2022/08/16 10:18:16;;;;;;;2.88;2.33;;;;;;;;;;5026673;28;20033;-85
2022/08/16 10:21:02;;;;;;;3.22;2.20;;;;;;;;;;5039487;28;20068;-86
2022/08/16 10:23:48;;;;;;;3.38;2.30;;;;;;;;;;5039752;28;20103;-86
2022/08/16 10:26:34;;;;;;;4.68;2.45;;;;;;;;;;5026148;28;20044;-86
2022/08/16 10:29:20;;;;;;;3.97;2.38;;;;;;;;;;5026175;28;20059;-86
2022/08/16 10:32:07;;;;;;;3.42;2.22;;;;;;;;;;5026589;28;20423;-86
2022/08/16 10:34:52;;;;;;;3.88;2.05;;;;;;;;;;5039875;28;20040;-86
2022/08/16 10:37:38;;;;;;;3.55;2.22;;;;;;;;;;5026412;28;20045;-87
2022/08/16 10:40:24;;;;;;;3.05;2.13;;;;;;;;;;5026346;28;20091;-87
2022/08/16 10:43:10;;;;;;;2.72;2.13;;;;;;;;;;5025279;28;20103;-87
2022/08/16 10:45:55;;;;;;;3.33;2.08;;;;;;;;;;5026581;28;20040;-87
2022/08/16 10:48:41;;;;;;;3.40;2.28;;;;;;;;;;5026494;28;20056;-87
2022/08/16 10:51:27;;;;;;;3.00;2.33;;;;;;;;;;5039564;28;20071;-87
2022/08/16 10:54:14;;;;;;;3.08;2.08;;;;;;;;;;5025714;28;20080;-87
2022/08/16 10:57:01;;;;;;;4.43;2.55;;;;;;;;;;5026261;28;20048;-87
2022/08/16 10:59:46;;;;;;;3.45;2.50;;;;;;;;;;5024467;28;20629;-87
2022/08/16 11:02:32;;;;;;;3.13;2.03;;;;;;;;;;5025539;28;20036;-87
2022/08/16 11:05:18;;;;;;;4.47;2.47;;;;;;;;;;5025868;28;20067;-87
2022/08/16 11:08:04;;;;;;;2.88;1.90;;;;;;;;;;5026210;28;20123;-87
2022/08/16 11:10:50;;;;;;;2.30;1.92;;;;;;;;;;5026161;28;20049;-87
2022/08/16 11:13:36;;;;;;;2.80;1.90;;;;;;;;;;5026094;28;20400;-87
2022/08/16 11:16:23;;;;;;;3.58;1.98;;;;;;;;;;5039081;28;20135;-86
2022/08/16 11:19:09;;;;;;;3.78;2.13;;;;;;;;;;5025935;28;20067;-87
2022/08/16 11:21:54;;;;;;;3.53;2.30;;;;;;;;;;5024991;28;20041;-86
2022/08/16 11:24:41;;;;;;;3.72;2.60;;;;;;;;;;5037454;28;20041;-87
2022/08/16 11:27:27;;;;;;;2.70;2.28;;;;;;;;;;5038958;28;20047;-87
2022/08/16 11:30:13;;;;;;;3.03;2.30;;;;;;;;;;5038704;28;20084;-87
2022/08/16 11:33:00;;;;;;;2.83;1.95;;;;;;;;;;5038842;28;20041;-87
2022/08/16 11:35:46;;;;;;;4.03;2.80;;;;;;;;;;5025601;28;20037;-87
2022/08/16 11:38:31;;;;;;;3.70;2.15;;;;;;;;;;5038683;28;20052;-87
2022/08/16 11:41:17;;;;;;;2.75;2.33;;;;;;;;;;5023517;28;20044;-87
2022/08/16 11:44:05;;;;;;;2.70;2.10;;;;;;;;;;5038465;28;20041;-88
2022/08/16 11:46:50;;;;;;;3.67;2.47;;;;;;;;;;5023887;28;20029;-87
2022/08/16 11:49:36;;;;;;;4.78;2.55;;;;;;;;;;5024815;28;20049;-87
2022/08/16 11:52:25;;;;;;;4.35;2.38;;;;;;;;;;5024934;28;20056;-88
2022/08/16 11:55:12;;;;;;;3.15;1.85;;;;;;;;;;5038595;28;20044;-87
2022/08/16 11:57:59;;;;;;;3.20;2.35;;;;;;;;;;5024580;28;20497;-87
2022/08/16 12:00:45;;;;;;;4.60;2.03;;;;;;;;;;5038504;28;20043;-87
2022/08/16 12:03:31;;;;;;;3.97;2.15;;;;;;;;;;5038449;28;20155;-88
2022/08/16 12:06:17;;;;;;;2.20;1.83;;;;;;;;;;5019652;28;20456;-91
2022/08/16 12:08:43;;;;;;;2.78;1.98;;;;;;;;;;5009561;28;20129;-89
2022/08/16 12:11:09;;;;;;;4.35;2.38;;;;;;;;;;5018839;28;20068;-90
2022/08/16 12:13:34;;;;;;;4.07;2.55;;;;;;;;;;5003041;28;20033;-89
2022/08/16 12:16:01;;;;;;;3.13;2.05;;;;;;;;;;4999484;28;20033;-90
2022/08/16 12:18:26;;;;;;;5.00;2.22;;;;;;;;;;4999618;28;20060;-90
2022/08/16 12:20:52;;;;;;;3.53;2.33;;;;;;;;;;4983069;28;20496;-89
2022/08/16 12:23:17;;;;;;;4.25;1.90;;;;;;;;;;4986925;28;20029;-90
2022/08/16 12:25:43;;;;;;;3.80;2.00;;;;;;;;;;4998994;28;20571;-86
2022/08/16 12:28:10;;;;;;;15.23;11.73;;;;;;;;;;4982614;28;20120;-86
2022/08/16 12:30:39;;;;;;;13.90;8.88;;;;;;;;;;4999166;28;20033;-87
2022/08/16 12:33:06;;;;;;;9.15;5.75;;;;;;;;;;5014608;28;20083;-87
2022/08/16 12:35:32;;;;;;;4.53;3.65;;;;;;;;;;4998225;28;20038;-88
2022/08/16 12:37:58;;;;;;;7.22;3.55;;;;;;;;;;4998582;28;20044;-86
2022/08/16 12:40:31;;;;;;;7.47;3.17;;;;;;;;;;4993930;28;20060;-86
2022/08/16 12:42:58;;;;;;;3.95;2.72;;;;;;;;;;4998362;28;20381;-87
2022/08/16 12:45:23;;;;;;;5.63;2.58;;;;;;;;;;4982726;28;20037;-87
2022/08/16 12:50:33;;;;;;;5.13;2.70;;;;;;;;;;5017072;28;20083;-86
2022/08/16 12:52:59;;;;;;;5.20;2.50;;;;;;;;;;4998365;28;20049;-85
2022/08/16 12:55:24;;;;;;;6.18;2.67;;;;;;;;;;4981421;28;20039;-86
2022/08/16 12:57:54;;;;;;;4.95;2.53;;;;;;;;;;4981925;28;20029;-86
2022/08/16 13:00:19;;;;;;;5.00;3.10;;;;;;;;;;4982276;28;20033;-86
2022/08/16 13:02:45;;;;;;;4.72;2.85;;;;;;;;;;4981550;28;20562;-86
2022/08/16 13:05:11;;;;;;;6.53;2.85;;;;;;;;;;4998297;28;20079;-86
2022/08/16 13:07:37;;;;;;;5.00;2.72;;;;;;;;;;4986684;28;20121;-85
2022/08/16 13:10:12;;;;;;;3.78;2.83;;;;;;;;;;4997778;28;20033;-86
2022/08/16 13:12:40;;;;;;;4.30;2.80;;;;;;;;;;4998438;28;20423;-86
2022/08/16 13:15:09;;;;;;;6.35;3.28;;;;;;;;;;4998107;28;20403;-86
2022/08/16 13:17:35;;;;;;;5.20;2.83;;;;;;;;;;4997923;28;20519;-86
2022/08/16 13:20:00;;;;;;;3.75;2.47;;;;;;;;;;4997866;28;20037;-87
2022/08/16 13:22:26;;;;;;;4.05;2.30;;;;;;;;;;4997502;28;20055;-87
2022/08/16 13:24:52;;;;;;;3.83;2.38;;;;;;;;;;4997166;28;20034;-86
2022/08/16 13:27:17;;;;;;;4.20;2.60;;;;;;;;;;5014059;28;20034;-86
2022/08/16 13:29:43;;;;;;;4.05;2.45;;;;;;;;;;4997749;28;20060;-86
2022/08/16 13:32:09;;;;;;;3.72;2.58;;;;;;;;;;4997849;28;20030;-86
2022/08/16 13:34:35;;;;;;;3.97;2.22;;;;;;;;;;4997924;28;20057;-87
2022/08/16 13:37:00;;;;;;;3.00;2.00;;;;;;;;;;4997416;28;20068;-86
2022/08/16 13:39:25;;;;;;;3.67;2.55;;;;;;;;;;4997371;28;20033;-86
2022/08/16 13:41:51;;;;;;;3.53;2.30;;;;;;;;;;5020097;28;20038;-87
2022/08/16 13:44:17;;;;;;;4.07;2.67;;;;;;;;;;4981554;28;20487;-86
2022/08/16 13:46:44;;;;;;;3.15;2.20;;;;;;;;;;4981763;28;20041;-86
2022/08/16 13:49:10;;;;;;;8.85;2.65;;;;;;;;;;5000691;28;20084;-86
2022/08/16 13:51:35;;;;;;;4.60;3.13;;;;;;;;;;5000984;28;20124;-86
2022/08/16 13:54:04;;;;;;;4.50;2.58;;;;;;;;;;5001025;28;20064;-86
2022/08/16 13:56:33;;;;;;;5.55;2.55;;;;;;;;;;5001452;28;20045;-86
2022/08/16 13:58:59;;;;;;;3.38;2.08;;;;;;;;;;4985241;28;20029;-86
2022/08/16 14:01:26;;;;;;;3.85;2.30;;;;;;;;;;5001177;28;20033;-86
2022/08/16 14:03:52;;;;;;;4.47;2.47;;;;;;;;;;4985141;28;20124;-86
2022/08/16 14:06:18;;;;;;;4.80;2.45;;;;;;;;;;5001254;28;20033;-86
2022/08/16 14:08:43;;;;;;;4.43;2.35;;;;;;;;;;4986942;28;20449;-85
2022/08/16 14:11:12;;;;;;;3.65;2.17;;;;;;;;;;5000765;28;20064;-86
2022/08/16 14:13:39;;;;;;;3.92;2.40;;;;;;;;;;5001307;28;20068;-86
2022/08/16 14:16:05;;;;;;;3.30;2.25;;;;;;;;;;5001329;28;20038;-86
2022/08/16 14:18:30;;;;;;;2.85;2.30;;;;;;;;;;5000673;28;20033;-86
2022/08/16 14:20:57;;;;;;;4.13;2.13;;;;;;;;;;5016969;28;20072;-85
2022/08/16 14:23:22;;;;;;;5.57;2.20;;;;;;;;;;5000731;28;20037;-86
2022/08/16 14:25:48;;;;;;;4.15;1.73;;;;;;;;;;5016694;28;20057;-86
2022/08/16 14:28:13;;;;;;;6.55;2.72;;;;;;;;;;5017028;28;20053;-85
2022/08/16 14:30:39;;;;;;;3.58;2.55;;;;;;;;;;5000662;28;20038;-86
2022/08/16 14:33:04;;;;;;;2.70;2.08;;;;;;;;;;4984674;28;20086;-86
2022/08/16 14:35:30;;;;;;;3.15;2.03;;;;;;;;;;5000458;28;20044;-86
2022/08/16 14:37:56;;;;;;;4.15;2.20;;;;;;;;;;4999962;28;20025;-86
2022/08/16 14:40:22;;;;;;;3.42;2.15;;;;;;;;;;4984158;28;20124;-86
2022/08/16 14:42:48;;;;;;;5.40;2.40;;;;;;;;;;5000528;28;20026;-85
2022/08/16 14:45:15;;;;;;;2.80;1.77;;;;;;;;;;5017063;28;20393;-87
2022/08/16 14:47:41;;;;;;;5.10;2.60;;;;;;;;;;5000506;28;20025;-86
2022/08/16 14:50:12;;;;;;;3.47;2.15;;;;;;;;;;5000220;28;20040;-86
2022/08/16 14:52:37;;;;;;;6.32;2.47;;;;;;;;;;5000644;28;20030;-86
2022/08/16 14:55:03;;;;;;;4.18;2.17;;;;;;;;;;5016236;28;20068;-87
2022/08/16 14:57:28;;;;;;;5.47;2.17;;;;;;;;;;5000380;28;20395;-87
2022/08/16 14:59:54;;;;;;;6.70;2.40;;;;;;;;;;5016209;28;20094;-86
2022/08/16 15:02:21;;;;;;;2.83;1.88;;;;;;;;;;5016334;28;20492;-86
2022/08/16 15:04:46;;;;;;;5.30;1.90;;;;;;;;;;5000314;28;20548;-86
2022/08/16 15:07:12;;;;;;;5.00;2.17;;;;;;;;;;4999699;28;20056;-85
2022/08/16 15:09:38;;;;;;;3.53;2.13;;;;;;;;;;5026116;28;20029;-86
2022/08/16 15:12:09;;;;;;;3.78;2.20;;;;;;;;;;5016116;28;20037;-86
2022/08/16 15:14:37;;;;;;;4.80;2.58;;;;;;;;;;4999981;28;20037;-87
2022/08/16 15:17:02;;;;;;;3.65;2.63;;;;;;;;;;5016558;28;20041;-86
2022/08/16 15:19:27;;;;;;;2.92;1.98;;;;;;;;;;5015976;28;20057;-86
2022/08/16 15:21:53;;;;;;;4.35;2.47;;;;;;;;;;4999289;28;20056;-87
2022/08/16 15:24:18;;;;;;;3.45;2.17;;;;;;;;;;5016392;28;20052;-89
2022/08/16 15:26:44;;;;;;;4.35;1.92;;;;;;;;;;5000111;28;20075;-90
2022/08/16 15:29:09;;;;;;;3.70;2.20;;;;;;;;;;5000451;28;20052;-89
2022/08/16 15:31:34;;;;;;;3.88;1.90;;;;;;;;;;5016497;28;20034;-89
2022/08/16 15:34:00;;;;;;;4.30;1.90;;;;;;;;;;5016435;28;20089;-89
2022/08/16 15:36:25;;;;;;;4.10;2.13;;;;;;;;;;5016110;28;20132;-89
2022/08/16 15:38:52;;;;;;;5.53;2.60;;;;;;;;;;5000358;28;20040;-89
2022/08/16 15:41:54;;;;;;;5.05;2.47;;;;;;;;;;5016182;28;20566;-89
2022/08/16 15:44:22;;;;;;;3.90;3.03;;;;;;;;;;5000015;28;20039;-89
2022/08/16 15:46:47;;;;;;;3.00;1.92;;;;;;;;;;4999776;28;20030;-89
2022/08/16 15:49:13;;;;;;;2.85;2.15;;;;;;;;;;5015793;28;20099;-89
2022/08/16 15:51:39;;;;;;;3.95;2.08;;;;;;;;;;5015754;28;20049;-89
2022/08/16 15:54:05;;;;;;;5.53;2.90;;;;;;;;;;5000289;28;20037;-88
2022/08/16 15:56:30;;;;;;;4.18;2.40;;;;;;;;;;4999948;28;20034;-90
2022/08/16 15:58:56;;;;;;;4.35;2.30;;;;;;;;;;5016291;28;20499;-89
2022/08/16 16:01:21;;;;;;;4.95;2.22;;;;;;;;;;5015805;28;20033;-89
2022/08/16 16:03:47;;;;;;;3.58;2.13;;;;;;;;;;4999418;28;20037;-89
2022/08/16 16:06:15;;;;;;;3.05;1.70;;;;;;;;;;4999574;28;20029;-88
2022/08/16 16:08:40;;;;;;;3.28;2.20;;;;;;;;;;5009195;28;20498;-90
2022/08/16 16:11:06;;;;;;;4.70;2.45;;;;;;;;;;5038146;28;20028;-88
2022/08/16 16:13:32;;;;;;;5.07;2.33;;;;;;;;;;5022099;28;20032;-88